sensor_id;sensor_type;location;lat;lon;timestamp;P1;durP1;ratioP1;P2;durP2;ratioP2
10074;SDS011;5076;42.680;23.288;2023-02-08T00:01:44;14.57;;;9.23;;
10074;SDS011;5076;42.680;23.288;2023-02-08T00:04:10;16.20;;;9.40;;
10074;SDS011;5076;42.680;23.288;2023-02-08T00:06:39;13.93;;;8.87;;
10074;SDS011;5076;42.680;23.288;2023-02-08T00:09:06;15.90;;;9.47;;
10074;SDS011;5076;42.680;23.288;2023-02-08T00:11:33;13.87;;;9.37;;
10074;SDS011;5076;42.680;23.288;2023-02-08T00:14:00;15.50;;;9.13;;
10074;SDS011;5076;42.680;23.288;2023-02-08T00:16:27;12.63;;;8.30;;
10074;SDS011;5076;42.680;23.288;2023-02-08T00:18:53;14.67;;;9.20;;
10074;SDS011;5076;42.680;23.288;2023-02-08T00:21:20;15.03;;;9.83;;
10074;SDS011;5076;42.680;23.288;2023-02-08T00:23:49;15.40;;;8.63;;
10074;SDS011;5076;42.680;23.288;2023-02-08T00:26:15;14.43;;;9.13;;
10074;SDS011;5076;42.680;23.288;2023-02-08T00:28:42;16.43;;;9.73;;
10074;SDS011;5076;42.680;23.288;2023-02-08T00:31:10;15.30;;;9.20;;
10074;SDS011;5076;42.680;23.288;2023-02-08T00:33:36;15.70;;;9.73;;
10074;SDS011;5076;42.680;23.288;2023-02-08T00:36:04;15.77;;;9.57;;
10074;SDS011;5076;42.680;23.288;2023-02-08T00:38:33;15.67;;;8.23;;
10074;SDS011;5076;42.680;23.288;2023-02-08T00:41:02;12.50;;;8.47;;
10074;SDS011;5076;42.680;23.288;2023-02-08T00:43:29;13.93;;;8.73;;
10074;SDS011;5076;42.680;23.288;2023-02-08T00:45:56;14.77;;;8.60;;
10074;SDS011;5076;42.680;23.288;2023-02-08T00:48:24;16.63;;;10.43;;
10074;SDS011;5076;42.680;23.288;2023-02-08T00:50:56;13.07;;;8.13;;
10074;SDS011;5076;42.680;23.288;2023-02-08T00:53:24;13.40;;;8.43;;
10074;SDS011;5076;42.680;23.288;2023-02-08T00:55:51;13.77;;;8.73;;
10074;SDS011;5076;42.680;23.288;2023-02-08T00:58:19;17.17;;;9.70;;
10074;SDS011;5076;42.680;23.288;2023-02-08T01:00:48;15.83;;;8.97;;
10074;SDS011;5076;42.680;23.288;2023-02-08T01:03:16;14.93;;;8.50;;
10074;SDS011;5076;42.680;23.288;2023-02-08T01:05:43;14.70;;;8.70;;
10074;SDS011;5076;42.680;23.288;2023-02-08T01:08:10;13.33;;;8.27;;
10074;SDS011;5076;42.680;23.288;2023-02-08T01:10:37;17.23;;;10.17;;
10074;SDS011;5076;42.680;23.288;2023-02-08T01:13:04;13.67;;;9.00;;
10074;SDS011;5076;42.680;23.288;2023-02-08T01:15:32;14.33;;;9.13;;
10074;SDS011;5076;42.680;23.288;2023-02-08T01:17:59;15.23;;;9.93;;
10074;SDS011;5076;42.680;23.288;2023-02-08T01:20:26;15.23;;;9.40;;
10074;SDS011;5076;42.680;23.288;2023-02-08T01:22:54;14.77;;;9.53;;
10074;SDS011;5076;42.680;23.288;2023-02-08T01:25:21;13.00;;;8.97;;
10074;SDS011;5076;42.680;23.288;2023-02-08T01:27:48;16.07;;;9.97;;
10074;SDS011;5076;42.680;23.288;2023-02-08T01:30:15;14.87;;;9.33;;
10074;SDS011;5076;42.680;23.288;2023-02-08T01:32:44;17.23;;;10.23;;
10074;SDS011;5076;42.680;23.288;2023-02-08T01:35:11;16.83;;;10.47;;
10074;SDS011;5076;42.680;23.288;2023-02-08T01:37:37;16.27;;;9.00;;
10074;SDS011;5076;42.680;23.288;2023-02-08T01:40:05;15.50;;;9.90;;
10074;SDS011;5076;42.680;23.288;2023-02-08T01:42:32;15.33;;;9.80;;
10074;SDS011;5076;42.680;23.288;2023-02-08T01:45:15;15.40;;;9.83;;
10074;SDS011;5076;42.680;23.288;2023-02-08T01:47:51;13.60;;;8.63;;
10074;SDS011;5076;42.680;23.288;2023-02-08T01:50:21;14.37;;;9.10;;
10074;SDS011;5076;42.680;23.288;2023-02-08T01:52:54;16.40;;;9.53;;
10074;SDS011;5076;42.680;23.288;2023-02-08T01:55:22;15.93;;;9.47;;
10074;SDS011;5076;42.680;23.288;2023-02-08T01:57:53;16.37;;;9.70;;
10074;SDS011;5076;42.680;23.288;2023-02-08T02:00:25;16.83;;;10.37;;
10074;SDS011;5076;42.680;23.288;2023-02-08T02:02:54;18.47;;;10.13;;
10074;SDS011;5076;42.680;23.288;2023-02-08T02:05:25;13.90;;;9.60;;
10074;SDS011;5076;42.680;23.288;2023-02-08T02:07:55;15.17;;;10.20;;
10074;SDS011;5076;42.680;23.288;2023-02-08T02:10:24;17.93;;;10.43;;
10074;SDS011;5076;42.680;23.288;2023-02-08T02:12:52;14.27;;;9.40;;
10074;SDS011;5076;42.680;23.288;2023-02-08T02:15:21;16.50;;;10.53;;
10074;SDS011;5076;42.680;23.288;2023-02-08T02:17:49;17.00;;;10.67;;
10074;SDS011;5076;42.680;23.288;2023-02-08T02:20:19;15.50;;;10.43;;
10074;SDS011;5076;42.680;23.288;2023-02-08T02:22:58;17.67;;;10.60;;
10074;SDS011;5076;42.680;23.288;2023-02-08T02:25:55;15.80;;;10.37;;
10074;SDS011;5076;42.680;23.288;2023-02-08T02:28:56;17.57;;;10.63;;
10074;SDS011;5076;42.680;23.288;2023-02-08T02:31:58;17.77;;;10.60;;
10074;SDS011;5076;42.680;23.288;2023-02-08T02:34:33;16.80;;;10.97;;
10074;SDS011;5076;42.680;23.288;2023-02-08T02:37:09;15.27;;;10.83;;
10074;SDS011;5076;42.680;23.288;2023-02-08T02:39:44;17.33;;;11.37;;
10074;SDS011;5076;42.680;23.288;2023-02-08T02:42:21;18.57;;;10.93;;
10074;SDS011;5076;42.680;23.288;2023-02-08T02:45:13;18.73;;;11.67;;
10074;SDS011;5076;42.680;23.288;2023-02-08T02:47:50;17.23;;;11.33;;
10074;SDS011;5076;42.680;23.288;2023-02-08T02:50:26;19.47;;;11.47;;
10074;SDS011;5076;42.680;23.288;2023-02-08T02:52:59;17.10;;;10.97;;
10074;SDS011;5076;42.680;23.288;2023-02-08T02:55:29;17.07;;;10.77;;
10074;SDS011;5076;42.680;23.288;2023-02-08T02:58:02;18.63;;;11.47;;
10074;SDS011;5076;42.680;23.288;2023-02-08T03:00:30;23.03;;;11.90;;
10074;SDS011;5076;42.680;23.288;2023-02-08T03:03:00;16.70;;;11.03;;
10074;SDS011;5076;42.680;23.288;2023-02-08T03:05:27;23.57;;;13.53;;
10074;SDS011;5076;42.680;23.288;2023-02-08T03:10:49;18.23;;;11.20;;
10074;SDS011;5076;42.680;23.288;2023-02-08T03:13:35;21.50;;;13.10;;
10074;SDS011;5076;42.680;23.288;2023-02-08T03:16:18;19.07;;;12.20;;
10074;SDS011;5076;42.680;23.288;2023-02-08T03:18:57;22.07;;;13.20;;
10074;SDS011;5076;42.680;23.288;2023-02-08T03:21:35;20.47;;;13.63;;
10074;SDS011;5076;42.680;23.288;2023-02-08T03:24:08;18.60;;;12.07;;
10074;SDS011;5076;42.680;23.288;2023-02-08T03:26:49;20.50;;;13.27;;
10074;SDS011;5076;42.680;23.288;2023-02-08T03:29:23;21.67;;;12.77;;
10074;SDS011;5076;42.680;23.288;2023-02-08T03:31:56;19.93;;;12.90;;
10074;SDS011;5076;42.680;23.288;2023-02-08T03:34:29;18.87;;;12.23;;
10074;SDS011;5076;42.680;23.288;2023-02-08T03:37:03;22.00;;;12.07;;
10074;SDS011;5076;42.680;23.288;2023-02-08T03:39:34;21.57;;;12.80;;
10074;SDS011;5076;42.680;23.288;2023-02-08T03:42:04;19.60;;;12.27;;
10074;SDS011;5076;42.680;23.288;2023-02-08T03:44:35;23.07;;;13.83;;
10074;SDS011;5076;42.680;23.288;2023-02-08T03:47:07;21.37;;;13.37;;
10074;SDS011;5076;42.680;23.288;2023-02-08T03:49:41;22.30;;;13.13;;
10074;SDS011;5076;42.680;23.288;2023-02-08T03:52:10;19.03;;;12.47;;
10074;SDS011;5076;42.680;23.288;2023-02-08T03:54:39;22.73;;;14.30;;
10074;SDS011;5076;42.680;23.288;2023-02-08T03:57:11;21.00;;;13.73;;
10074;SDS011;5076;42.680;23.288;2023-02-08T03:59:44;26.63;;;14.83;;
10074;SDS011;5076;42.680;23.288;2023-02-08T04:02:16;22.77;;;14.80;;
10074;SDS011;5076;42.680;23.288;2023-02-08T04:04:48;20.33;;;13.00;;
10074;SDS011;5076;42.680;23.288;2023-02-08T04:07:17;21.73;;;13.57;;
10074;SDS011;5076;42.680;23.288;2023-02-08T04:09:45;22.67;;;13.40;;
10074;SDS011;5076;42.680;23.288;2023-02-08T04:12:12;23.33;;;14.27;;
10074;SDS011;5076;42.680;23.288;2023-02-08T04:14:39;21.63;;;13.60;;
10074;SDS011;5076;42.680;23.288;2023-02-08T04:17:06;23.83;;;14.13;;
10074;SDS011;5076;42.680;23.288;2023-02-08T04:19:33;22.87;;;14.13;;
10074;SDS011;5076;42.680;23.288;2023-02-08T04:22:02;22.00;;;13.83;;
10074;SDS011;5076;42.680;23.288;2023-02-08T04:24:28;20.07;;;13.03;;
10074;SDS011;5076;42.680;23.288;2023-02-08T04:26:55;21.67;;;12.67;;
10074;SDS011;5076;42.680;23.288;2023-02-08T04:29:22;27.00;;;14.77;;
10074;SDS011;5076;42.680;23.288;2023-02-08T04:31:49;20.50;;;13.67;;
10074;SDS011;5076;42.680;23.288;2023-02-08T04:34:16;22.33;;;13.73;;
10074;SDS011;5076;42.680;23.288;2023-02-08T04:36:43;23.60;;;14.40;;
10074;SDS011;5076;42.680;23.288;2023-02-08T04:39:11;23.47;;;14.73;;
10074;SDS011;5076;42.680;23.288;2023-02-08T04:41:38;25.90;;;16.30;;
10074;SDS011;5076;42.680;23.288;2023-02-08T04:44:05;23.53;;;15.43;;
10074;SDS011;5076;42.680;23.288;2023-02-08T04:46:32;25.43;;;15.30;;
10074;SDS011;5076;42.680;23.288;2023-02-08T04:48:59;25.43;;;15.93;;
10074;SDS011;5076;42.680;23.288;2023-02-08T04:51:25;25.90;;;14.80;;
10074;SDS011;5076;42.680;23.288;2023-02-08T04:53:52;24.00;;;14.13;;
10074;SDS011;5076;42.680;23.288;2023-02-08T04:56:21;25.37;;;14.83;;
10074;SDS011;5076;42.680;23.288;2023-02-08T04:58:48;27.57;;;16.10;;
10074;SDS011;5076;42.680;23.288;2023-02-08T05:01:14;25.77;;;15.47;;
10074;SDS011;5076;42.680;23.288;2023-02-08T05:03:41;24.60;;;14.30;;
10074;SDS011;5076;42.680;23.288;2023-02-08T05:06:08;24.03;;;15.27;;
10074;SDS011;5076;42.680;23.288;2023-02-08T05:08:35;26.90;;;15.50;;
10074;SDS011;5076;42.680;23.288;2023-02-08T05:11:02;26.13;;;15.13;;
10074;SDS011;5076;42.680;23.288;2023-02-08T05:13:31;26.23;;;15.13;;
10074;SDS011;5076;42.680;23.288;2023-02-08T05:15:58;28.87;;;16.97;;
10074;SDS011;5076;42.680;23.288;2023-02-08T05:18:25;24.90;;;16.03;;
10074;SDS011;5076;42.680;23.288;2023-02-08T05:20:55;25.40;;;14.93;;
10074;SDS011;5076;42.680;23.288;2023-02-08T05:23:22;26.73;;;16.27;;
10074;SDS011;5076;42.680;23.288;2023-02-08T05:25:50;24.57;;;15.27;;
10074;SDS011;5076;42.680;23.288;2023-02-08T05:28:17;30.83;;;17.83;;
10074;SDS011;5076;42.680;23.288;2023-02-08T05:30:46;25.40;;;16.67;;
10074;SDS011;5076;42.680;23.288;2023-02-08T05:33:13;27.30;;;17.43;;
10074;SDS011;5076;42.680;23.288;2023-02-08T05:35:40;28.03;;;17.13;;
10074;SDS011;5076;42.680;23.288;2023-02-08T05:38:07;26.80;;;15.80;;
10074;SDS011;5076;42.680;23.288;2023-02-08T05:40:34;27.10;;;16.57;;
10074;SDS011;5076;42.680;23.288;2023-02-08T05:43:01;27.73;;;16.73;;
10074;SDS011;5076;42.680;23.288;2023-02-08T05:45:28;28.97;;;15.70;;
10074;SDS011;5076;42.680;23.288;2023-02-08T05:47:57;28.43;;;16.47;;
10074;SDS011;5076;42.680;23.288;2023-02-08T05:50:24;26.53;;;16.23;;
10074;SDS011;5076;42.680;23.288;2023-02-08T05:52:51;23.60;;;15.10;;
10074;SDS011;5076;42.680;23.288;2023-02-08T05:55:18;27.07;;;16.03;;
10074;SDS011;5076;42.680;23.288;2023-02-08T05:57:45;29.97;;;16.63;;
10074;SDS011;5076;42.680;23.288;2023-02-08T06:00:12;25.70;;;16.07;;
10074;SDS011;5076;42.680;23.288;2023-02-08T06:02:40;29.30;;;16.63;;
10074;SDS011;5076;42.680;23.288;2023-02-08T06:05:08;28.07;;;16.73;;
10074;SDS011;5076;42.680;23.288;2023-02-08T06:07:35;28.07;;;16.50;;
10074;SDS011;5076;42.680;23.288;2023-02-08T06:10:02;26.43;;;16.03;;
10074;SDS011;5076;42.680;23.288;2023-02-08T06:12:32;31.70;;;18.37;;
10074;SDS011;5076;42.680;23.288;2023-02-08T06:14:59;27.77;;;17.93;;
10074;SDS011;5076;42.680;23.288;2023-02-08T06:17:26;27.43;;;17.17;;
10074;SDS011;5076;42.680;23.288;2023-02-08T06:19:53;27.07;;;15.07;;
10074;SDS011;5076;42.680;23.288;2023-02-08T06:22:21;35.37;;;19.73;;
10074;SDS011;5076;42.680;23.288;2023-02-08T06:24:48;32.90;;;21.13;;
10074;SDS011;5076;42.680;23.288;2023-02-08T06:27:15;37.27;;;21.47;;
10074;SDS011;5076;42.680;23.288;2023-02-08T06:29:42;44.73;;;25.20;;
10074;SDS011;5076;42.680;23.288;2023-02-08T06:32:09;33.03;;;21.30;;
10074;SDS011;5076;42.680;23.288;2023-02-08T06:34:36;23.67;;;14.27;;
10074;SDS011;5076;42.680;23.288;2023-02-08T06:37:03;36.17;;;21.63;;
10074;SDS011;5076;42.680;23.288;2023-02-08T06:39:31;38.80;;;24.60;;
10074;SDS011;5076;42.680;23.288;2023-02-08T06:41:58;42.97;;;25.97;;
10074;SDS011;5076;42.680;23.288;2023-02-08T06:44:25;45.40;;;26.37;;
10074;SDS011;5076;42.680;23.288;2023-02-08T06:46:52;32.67;;;19.87;;
10074;SDS011;5076;42.680;23.288;2023-02-08T06:49:19;34.77;;;23.17;;
10074;SDS011;5076;42.680;23.288;2023-02-08T06:51:45;31.73;;;19.57;;
10074;SDS011;5076;42.680;23.288;2023-02-08T06:54:12;29.90;;;17.43;;
10074;SDS011;5076;42.680;23.288;2023-02-08T06:56:41;27.53;;;16.17;;
10074;SDS011;5076;42.680;23.288;2023-02-08T06:59:09;28.40;;;16.00;;
10074;SDS011;5076;42.680;23.288;2023-02-08T07:01:36;21.30;;;12.00;;
10074;SDS011;5076;42.680;23.288;2023-02-08T07:04:03;28.10;;;15.63;;
10074;SDS011;5076;42.680;23.288;2023-02-08T07:06:30;23.80;;;14.67;;
10074;SDS011;5076;42.680;23.288;2023-02-08T07:08:57;25.33;;;15.30;;
10074;SDS011;5076;42.680;23.288;2023-02-08T07:11:24;24.57;;;13.60;;
10074;SDS011;5076;42.680;23.288;2023-02-08T07:13:53;18.97;;;12.10;;
10074;SDS011;5076;42.680;23.288;2023-02-08T07:16:20;22.10;;;13.97;;
10074;SDS011;5076;42.680;23.288;2023-02-08T07:18:47;25.60;;;14.73;;
10074;SDS011;5076;42.680;23.288;2023-02-08T07:21:14;21.73;;;13.43;;
10074;SDS011;5076;42.680;23.288;2023-02-08T07:23:41;20.17;;;12.80;;
10074;SDS011;5076;42.680;23.288;2023-02-08T07:26:09;21.37;;;12.77;;
10074;SDS011;5076;42.680;23.288;2023-02-08T07:28:38;19.57;;;11.33;;
10074;SDS011;5076;42.680;23.288;2023-02-08T07:31:07;17.70;;;10.73;;
10074;SDS011;5076;42.680;23.288;2023-02-08T07:33:36;16.37;;;10.33;;
10074;SDS011;5076;42.680;23.288;2023-02-08T07:36:03;17.37;;;9.90;;
10074;SDS011;5076;42.680;23.288;2023-02-08T07:38:32;17.77;;;10.20;;
10074;SDS011;5076;42.680;23.288;2023-02-08T07:41:00;14.33;;;8.93;;
10074;SDS011;5076;42.680;23.288;2023-02-08T07:43:27;16.23;;;10.13;;
10074;SDS011;5076;42.680;23.288;2023-02-08T07:45:54;17.33;;;10.17;;
10074;SDS011;5076;42.680;23.288;2023-02-08T07:48:23;14.90;;;9.20;;
10074;SDS011;5076;42.680;23.288;2023-02-08T07:50:50;16.20;;;9.67;;
10074;SDS011;5076;42.680;23.288;2023-02-08T07:53:17;16.73;;;10.83;;
10074;SDS011;5076;42.680;23.288;2023-02-08T07:55:45;18.13;;;10.53;;
10074;SDS011;5076;42.680;23.288;2023-02-08T07:58:12;15.37;;;9.63;;
10074;SDS011;5076;42.680;23.288;2023-02-08T08:00:39;16.77;;;9.77;;
10074;SDS011;5076;42.680;23.288;2023-02-08T08:03:06;16.73;;;9.80;;
10074;SDS011;5076;42.680;23.288;2023-02-08T08:05:35;15.33;;;9.67;;
10074;SDS011;5076;42.680;23.288;2023-02-08T08:08:02;17.47;;;10.57;;
10074;SDS011;5076;42.680;23.288;2023-02-08T08:10:29;16.93;;;11.10;;
10074;SDS011;5076;42.680;23.288;2023-02-08T08:12:56;17.23;;;10.30;;
10074;SDS011;5076;42.680;23.288;2023-02-08T08:15:24;14.27;;;9.40;;
10074;SDS011;5076;42.680;23.288;2023-02-08T08:17:51;16.60;;;10.70;;
10074;SDS011;5076;42.680;23.288;2023-02-08T08:20:18;17.73;;;10.63;;
10074;SDS011;5076;42.680;23.288;2023-02-08T08:22:47;19.87;;;11.13;;
10074;SDS011;5076;42.680;23.288;2023-02-08T08:25:14;19.03;;;11.20;;
10074;SDS011;5076;42.680;23.288;2023-02-08T08:27:42;20.20;;;10.73;;
10074;SDS011;5076;42.680;23.288;2023-02-08T08:30:09;15.70;;;10.17;;
10074;SDS011;5076;42.680;23.288;2023-02-08T08:32:38;17.50;;;10.87;;
10074;SDS011;5076;42.680;23.288;2023-02-08T08:35:06;20.90;;;10.43;;
10074;SDS011;5076;42.680;23.288;2023-02-08T08:37:34;19.30;;;11.40;;
10074;SDS011;5076;42.680;23.288;2023-02-08T08:40:03;16.77;;;10.77;;
10074;SDS011;5076;42.680;23.288;2023-02-08T08:42:31;15.27;;;9.60;;
10074;SDS011;5076;42.680;23.288;2023-02-08T08:44:58;17.40;;;11.93;;
10074;SDS011;5076;42.680;23.288;2023-02-08T08:47:25;15.67;;;9.73;;
10074;SDS011;5076;42.680;23.288;2023-02-08T08:49:53;16.67;;;10.00;;
10074;SDS011;5076;42.680;23.288;2023-02-08T08:52:19;16.00;;;10.37;;
10074;SDS011;5076;42.680;23.288;2023-02-08T08:54:46;21.03;;;13.20;;
10074;SDS011;5076;42.680;23.288;2023-02-08T08:57:15;16.60;;;10.90;;
10074;SDS011;5076;42.680;23.288;2023-02-08T08:59:42;18.60;;;10.90;;
10074;SDS011;5076;42.680;23.288;2023-02-08T09:02:10;17.17;;;10.30;;
10074;SDS011;5076;42.680;23.288;2023-02-08T09:04:38;17.97;;;11.93;;
10074;SDS011;5076;42.680;23.288;2023-02-08T09:07:06;20.50;;;11.23;;
10074;SDS011;5076;42.680;23.288;2023-02-08T09:09:34;15.30;;;9.63;;
10074;SDS011;5076;42.680;23.288;2023-02-08T09:12:04;13.43;;;8.23;;
10074;SDS011;5076;42.680;23.288;2023-02-08T09:14:34;16.40;;;9.03;;
10074;SDS011;5076;42.680;23.288;2023-02-08T09:17:01;14.27;;;9.17;;
10074;SDS011;5076;42.680;23.288;2023-02-08T09:19:28;16.67;;;9.17;;
10074;SDS011;5076;42.680;23.288;2023-02-08T09:21:55;11.30;;;7.70;;
10074;SDS011;5076;42.680;23.288;2023-02-08T09:24:24;19.90;;;8.30;;
10074;SDS011;5076;42.680;23.288;2023-02-08T09:26:51;14.30;;;8.67;;
10074;SDS011;5076;42.680;23.288;2023-02-08T09:29:18;14.93;;;9.60;;
10074;SDS011;5076;42.680;23.288;2023-02-08T09:31:47;15.77;;;9.07;;
10074;SDS011;5076;42.680;23.288;2023-02-08T09:34:13;15.20;;;9.03;;
10074;SDS011;5076;42.680;23.288;2023-02-08T09:36:40;22.77;;;10.10;;
10074;SDS011;5076;42.680;23.288;2023-02-08T09:39:08;17.03;;;9.20;;
10074;SDS011;5076;42.680;23.288;2023-02-08T09:41:43;20.30;;;9.17;;
10074;SDS011;5076;42.680;23.288;2023-02-08T09:44:22;14.10;;;8.57;;
10074;SDS011;5076;42.680;23.288;2023-02-08T09:47:00;14.50;;;8.27;;
10074;SDS011;5076;42.680;23.288;2023-02-08T09:49:32;13.80;;;7.50;;
10074;SDS011;5076;42.680;23.288;2023-02-08T09:52:04;11.20;;;7.67;;
10074;SDS011;5076;42.680;23.288;2023-02-08T09:54:37;16.10;;;7.53;;
10074;SDS011;5076;42.680;23.288;2023-02-08T09:57:09;13.27;;;7.87;;
10074;SDS011;5076;42.680;23.288;2023-02-08T09:59:40;9.83;;;6.13;;
10074;SDS011;5076;42.680;23.288;2023-02-08T10:02:18;11.57;;;6.30;;
10074;SDS011;5076;42.680;23.288;2023-02-08T10:04:54;14.67;;;7.23;;
10074;SDS011;5076;42.680;23.288;2023-02-08T10:07:25;9.83;;;6.93;;
10074;SDS011;5076;42.680;23.288;2023-02-08T10:09:52;15.80;;;7.37;;
10074;SDS011;5076;42.680;23.288;2023-02-08T10:12:23;9.77;;;6.67;;
10074;SDS011;5076;42.680;23.288;2023-02-08T10:15:03;10.73;;;6.13;;
10074;SDS011;5076;42.680;23.288;2023-02-08T10:17:44;10.43;;;6.03;;
10074;SDS011;5076;42.680;23.288;2023-02-08T10:20:19;12.30;;;7.00;;
10074;SDS011;5076;42.680;23.288;2023-02-08T10:23:00;11.17;;;7.40;;
10074;SDS011;5076;42.680;23.288;2023-02-08T10:25:37;16.00;;;7.63;;
10074;SDS011;5076;42.680;23.288;2023-02-08T10:28:25;14.83;;;7.70;;
10074;SDS011;5076;42.680;23.288;2023-02-08T10:31:05;10.63;;;6.93;;
10074;SDS011;5076;42.680;23.288;2023-02-08T10:33:44;13.83;;;7.23;;
10074;SDS011;5076;42.680;23.288;2023-02-08T10:36:17;9.73;;;6.80;;
10074;SDS011;5076;42.680;23.288;2023-02-08T10:38:46;8.83;;;6.00;;
10074;SDS011;5076;42.680;23.288;2023-02-08T10:41:17;8.67;;;5.97;;
10074;SDS011;5076;42.680;23.288;2023-02-08T10:43:50;7.77;;;5.87;;
10074;SDS011;5076;42.680;23.288;2023-02-08T10:46:28;10.27;;;6.67;;
10074;SDS011;5076;42.680;23.288;2023-02-08T10:49:04;11.87;;;6.80;;
10074;SDS011;5076;42.680;23.288;2023-02-08T10:51:37;8.23;;;5.80;;
10074;SDS011;5076;42.680;23.288;2023-02-08T10:54:04;8.60;;;5.93;;
10074;SDS011;5076;42.680;23.288;2023-02-08T10:59:19;10.33;;;6.20;;
10074;SDS011;5076;42.680;23.288;2023-02-08T11:01:48;9.63;;;5.97;;
10074;SDS011;5076;42.680;23.288;2023-02-08T11:04:17;14.30;;;6.57;;
10074;SDS011;5076;42.680;23.288;2023-02-08T11:06:45;11.03;;;6.67;;
10074;SDS011;5076;42.680;23.288;2023-02-08T11:09:19;8.80;;;6.50;;
10074;SDS011;5076;42.680;23.288;2023-02-08T11:11:48;15.13;;;6.53;;
10074;SDS011;5076;42.680;23.288;2023-02-08T11:14:17;12.33;;;6.97;;
10074;SDS011;5076;42.680;23.288;2023-02-08T11:16:48;11.73;;;7.37;;
10074;SDS011;5076;42.680;23.288;2023-02-08T11:19:26;15.20;;;7.77;;
10074;SDS011;5076;42.680;23.288;2023-02-08T11:21:59;12.33;;;7.17;;
10074;SDS011;5076;42.680;23.288;2023-02-08T11:24:31;12.60;;;7.80;;
10074;SDS011;5076;42.680;23.288;2023-02-08T11:27:12;13.17;;;7.17;;
10074;SDS011;5076;42.680;23.288;2023-02-08T11:29:41;9.30;;;6.50;;
10074;SDS011;5076;42.680;23.288;2023-02-08T11:32:13;12.13;;;7.43;;
10074;SDS011;5076;42.680;23.288;2023-02-08T11:34:45;13.87;;;6.77;;
10074;SDS011;5076;42.680;23.288;2023-02-08T11:37:13;11.63;;;7.07;;
10074;SDS011;5076;42.680;23.288;2023-02-08T11:39:43;11.00;;;7.00;;
10074;SDS011;5076;42.680;23.288;2023-02-08T11:42:16;10.73;;;7.37;;
10074;SDS011;5076;42.680;23.288;2023-02-08T11:44:46;12.17;;;7.67;;
10074;SDS011;5076;42.680;23.288;2023-02-08T11:47:15;15.50;;;8.23;;
10074;SDS011;5076;42.680;23.288;2023-02-08T11:49:49;11.63;;;7.20;;
10074;SDS011;5076;42.680;23.288;2023-02-08T11:52:19;10.43;;;7.40;;
10074;SDS011;5076;42.680;23.288;2023-02-08T11:54:49;10.77;;;6.70;;
10074;SDS011;5076;42.680;23.288;2023-02-08T11:57:21;13.10;;;6.30;;
10074;SDS011;5076;42.680;23.288;2023-02-08T11:59:49;10.03;;;6.90;;
10074;SDS011;5076;42.680;23.288;2023-02-08T12:02:37;10.23;;;6.37;;
10074;SDS011;5076;42.680;23.288;2023-02-08T12:05:09;10.57;;;6.10;;
10074;SDS011;5076;42.680;23.288;2023-02-08T12:07:47;14.43;;;6.80;;
10074;SDS011;5076;42.680;23.288;2023-02-08T12:10:25;10.10;;;6.53;;
10074;SDS011;5076;42.680;23.288;2023-02-08T12:13:06;10.47;;;7.00;;
10074;SDS011;5076;42.680;23.288;2023-02-08T12:15:51;13.50;;;7.70;;
10074;SDS011;5076;42.680;23.288;2023-02-08T12:18:34;11.63;;;6.77;;
10074;SDS011;5076;42.680;23.288;2023-02-08T12:21:22;10.07;;;7.23;;
10074;SDS011;5076;42.680;23.288;2023-02-08T12:23:54;11.03;;;5.97;;
10074;SDS011;5076;42.680;23.288;2023-02-08T12:26:24;10.70;;;6.60;;
10074;SDS011;5076;42.680;23.288;2023-02-08T12:29:16;8.23;;;5.30;;
10074;SDS011;5076;42.680;23.288;2023-02-08T12:31:56;8.83;;;5.83;;
10074;SDS011;5076;42.680;23.288;2023-02-08T12:34:40;12.83;;;5.87;;
10074;SDS011;5076;42.680;23.288;2023-02-08T12:37:21;11.97;;;6.47;;
10074;SDS011;5076;42.680;23.288;2023-02-08T12:40:20;8.37;;;5.33;;
10074;SDS011;5076;42.680;23.288;2023-02-08T12:43:26;7.50;;;4.63;;
10074;SDS011;5076;42.680;23.288;2023-02-08T12:46:10;8.07;;;4.93;;
10074;SDS011;5076;42.680;23.288;2023-02-08T12:48:58;7.93;;;4.60;;
10074;SDS011;5076;42.680;23.288;2023-02-08T12:51:40;7.10;;;4.73;;
10074;SDS011;5076;42.680;23.288;2023-02-08T12:54:16;8.03;;;4.47;;
10074;SDS011;5076;42.680;23.288;2023-02-08T12:56:52;5.53;;;4.00;;
10074;SDS011;5076;42.680;23.288;2023-02-08T12:59:22;9.03;;;4.33;;
10074;SDS011;5076;42.680;23.288;2023-02-08T13:01:55;6.27;;;4.50;;
10074;SDS011;5076;42.680;23.288;2023-02-08T13:04:26;9.37;;;4.07;;
10074;SDS011;5076;42.680;23.288;2023-02-08T13:06:58;7.63;;;4.77;;
10074;SDS011;5076;42.680;23.288;2023-02-08T13:09:34;7.50;;;4.43;;
10074;SDS011;5076;42.680;23.288;2023-02-08T13:12:10;8.47;;;4.60;;
10074;SDS011;5076;42.680;23.288;2023-02-08T13:14:40;5.47;;;3.80;;
10074;SDS011;5076;42.680;23.288;2023-02-08T13:17:12;6.00;;;3.80;;
10074;SDS011;5076;42.680;23.288;2023-02-08T13:19:47;6.83;;;4.07;;
10074;SDS011;5076;42.680;23.288;2023-02-08T13:22:18;5.13;;;3.90;;
10074;SDS011;5076;42.680;23.288;2023-02-08T13:24:48;5.40;;;3.73;;
10074;SDS011;5076;42.680;23.288;2023-02-08T13:27:18;6.27;;;3.43;;
10074;SDS011;5076;42.680;23.288;2023-02-08T13:29:48;5.27;;;3.43;;
10074;SDS011;5076;42.680;23.288;2023-02-08T13:32:18;6.97;;;3.63;;
10074;SDS011;5076;42.680;23.288;2023-02-08T13:34:54;8.13;;;3.90;;
10074;SDS011;5076;42.680;23.288;2023-02-08T13:37:26;7.13;;;3.53;;
10074;SDS011;5076;42.680;23.288;2023-02-08T13:40:03;8.13;;;3.77;;
10074;SDS011;5076;42.680;23.288;2023-02-08T13:42:34;7.47;;;3.60;;
10074;SDS011;5076;42.680;23.288;2023-02-08T13:45:04;7.10;;;3.70;;
10074;SDS011;5076;42.680;23.288;2023-02-08T13:47:35;6.67;;;4.17;;
10074;SDS011;5076;42.680;23.288;2023-02-08T13:53:17;7.50;;;4.80;;
10074;SDS011;5076;42.680;23.288;2023-02-08T13:56:06;8.03;;;4.70;;
10074;SDS011;5076;42.680;23.288;2023-02-08T14:01:29;9.10;;;5.83;;
10074;SDS011;5076;42.680;23.288;2023-02-08T14:04:16;11.40;;;6.57;;
10074;SDS011;5076;42.680;23.288;2023-02-08T14:06:57;7.47;;;5.17;;
10074;SDS011;5076;42.680;23.288;2023-02-08T14:09:28;8.67;;;5.70;;
10074;SDS011;5076;42.680;23.288;2023-02-08T14:12:12;7.77;;;5.17;;
10074;SDS011;5076;42.680;23.288;2023-02-08T14:17:49;8.17;;;5.10;;
10074;SDS011;5076;42.680;23.288;2023-02-08T14:20:19;6.43;;;4.27;;
10074;SDS011;5076;42.680;23.288;2023-02-08T14:22:52;11.10;;;5.90;;
10074;SDS011;5076;42.680;23.288;2023-02-08T14:25:21;7.57;;;5.40;;
10074;SDS011;5076;42.680;23.288;2023-02-08T14:27:52;7.63;;;5.43;;
10074;SDS011;5076;42.680;23.288;2023-02-08T14:30:22;8.97;;;4.87;;
10074;SDS011;5076;42.680;23.288;2023-02-08T14:32:53;9.37;;;5.10;;
10074;SDS011;5076;42.680;23.288;2023-02-08T14:35:36;6.90;;;4.63;;
10074;SDS011;5076;42.680;23.288;2023-02-08T14:50:41;7.97;;;4.73;;
10074;SDS011;5076;42.680;23.288;2023-02-08T14:53:26;12.03;;;5.83;;
10074;SDS011;5076;42.680;23.288;2023-02-08T14:56:01;8.27;;;5.40;;
10074;SDS011;5076;42.680;23.288;2023-02-08T14:58:33;7.87;;;5.37;;
10074;SDS011;5076;42.680;23.288;2023-02-08T15:01:06;8.43;;;5.60;;
10074;SDS011;5076;42.680;23.288;2023-02-08T15:03:39;11.67;;;6.27;;
10074;SDS011;5076;42.680;23.288;2023-02-08T15:06:15;8.67;;;6.30;;
10074;SDS011;5076;42.680;23.288;2023-02-08T15:09:12;8.83;;;5.63;;
10074;SDS011;5076;42.680;23.288;2023-02-08T15:11:46;11.57;;;5.47;;
10074;SDS011;5076;42.680;23.288;2023-02-08T15:14:16;9.07;;;5.97;;
10074;SDS011;5076;42.680;23.288;2023-02-08T15:16:47;13.77;;;6.10;;
10074;SDS011;5076;42.680;23.288;2023-02-08T15:19:20;10.33;;;5.73;;
10074;SDS011;5076;42.680;23.288;2023-02-08T15:21:49;9.10;;;5.30;;